sensor_id;sensor_type;location;lat;lon;timestamp;temperature;humidity
17948;DHT22;9099;47.958;11.366;2022-12-18T00:02:20;-3.30;99.90
17948;DHT22;9099;47.958;11.366;2022-12-18T00:04:47;-3.20;99.90
17948;DHT22;9099;47.958;11.366;2022-12-18T00:07:14;-3.20;99.90
17948;DHT22;9099;47.958;11.366;2022-12-18T00:09:41;-3.20;99.90
17948;DHT22;9099;47.958;11.366;2022-12-18T00:12:07;-3.20;99.90
17948;DHT22;9099;47.958;11.366;2022-12-18T00:14:34;-3.20;99.90
17948;DHT22;9099;47.958;11.366;2022-12-18T00:17:02;-3.20;99.90
17948;DHT22;9099;47.958;11.366;2022-12-18T00:19:30;-3.30;99.90
17948;DHT22;9099;47.958;11.366;2022-12-18T00:21:57;-3.30;99.90
17948;DHT22;9099;47.958;11.366;2022-12-18T00:24:23;-3.30;99.90
17948;DHT22;9099;47.958;11.366;2022-12-18T00:26:50;-3.20;99.90
17948;DHT22;9099;47.958;11.366;2022-12-18T00:29:17;-3.20;99.90
17948;DHT22;9099;47.958;11.366;2022-12-18T00:31:44;-3.20;99.90
17948;DHT22;9099;47.958;11.366;2022-12-18T00:34:12;-3.20;99.90
17948;DHT22;9099;47.958;11.366;2022-12-18T00:36:40;-3.20;99.90
17948;DHT22;9099;47.958;11.366;2022-12-18T00:39:07;-3.10;99.90
17948;DHT22;9099;47.958;11.366;2022-12-18T00:41:34;-3.10;99.90
17948;DHT22;9099;47.958;11.366;2022-12-18T00:44:19;-3.20;99.90
17948;DHT22;9099;47.958;11.366;2022-12-18T00:46:47;-3.20;99.90
17948;DHT22;9099;47.958;11.366;2022-12-18T00:49:14;-3.20;99.90
17948;DHT22;9099;47.958;11.366;2022-12-18T00:51:43;-3.20;99.90
17948;DHT22;9099;47.958;11.366;2022-12-18T00:54:10;-3.20;99.90
17948;DHT22;9099;47.958;11.366;2022-12-18T00:56:37;-3.10;99.90
17948;DHT22;9099;47.958;11.366;2022-12-18T00:59:04;-3.10;99.90
17948;DHT22;9099;47.958;11.366;2022-12-18T01:01:31;-3.00;99.90
17948;DHT22;9099;47.958;11.366;2022-12-18T01:03:59;-2.90;99.90
17948;DHT22;9099;47.958;11.366;2022-12-18T01:06:26;-2.90;99.90
17948;DHT22;9099;47.958;11.366;2022-12-18T01:08:55;-3.00;99.90
17948;DHT22;9099;47.958;11.366;2022-12-18T01:11:22;-3.10;99.90
17948;DHT22;9099;47.958;11.366;2022-12-18T01:13:49;-3.00;99.90
17948;DHT22;9099;47.958;11.366;2022-12-18T01:16:16;-3.10;99.90
17948;DHT22;9099;47.958;11.366;2022-12-18T01:18:43;-3.20;99.90
17948;DHT22;9099;47.958;11.366;2022-12-18T01:21:13;-3.20;99.90
17948;DHT22;9099;47.958;11.366;2022-12-18T01:23:40;-3.20;99.90
17948;DHT22;9099;47.958;11.366;2022-12-18T01:26:12;-3.10;99.90
17948;DHT22;9099;47.958;11.366;2022-12-18T01:28:40;-3.10;99.90
17948;DHT22;9099;47.958;11.366;2022-12-18T01:31:12;-3.10;99.90
17948;DHT22;9099;47.958;11.366;2022-12-18T01:33:39;-3.20;99.90
17948;DHT22;9099;47.958;11.366;2022-12-18T01:36:06;-3.20;99.90
17948;DHT22;9099;47.958;11.366;2022-12-18T01:38:33;-3.30;99.90
17948;DHT22;9099;47.958;11.366;2022-12-18T01:41:01;-3.30;99.90
17948;DHT22;9099;47.958;11.366;2022-12-18T01:43:47;-3.30;99.90
17948;DHT22;9099;47.958;11.366;2022-12-18T01:46:15;-3.30;99.90
17948;DHT22;9099;47.958;11.366;2022-12-18T01:48:43;-3.40;99.90
17948;DHT22;9099;47.958;11.366;2022-12-18T01:51:11;-3.40;99.90
17948;DHT22;9099;47.958;11.366;2022-12-18T01:53:40;-3.50;99.90
17948;DHT22;9099;47.958;11.366;2022-12-18T01:56:08;-3.50;99.90
17948;DHT22;9099;47.958;11.366;2022-12-18T01:58:43;-3.50;99.90
17948;DHT22;9099;47.958;11.366;2022-12-18T02:01:14;-3.50;99.90
17948;DHT22;9099;47.958;11.366;2022-12-18T02:03:41;-3.50;99.90
17948;DHT22;9099;47.958;11.366;2022-12-18T02:06:13;-3.50;99.90
17948;DHT22;9099;47.958;11.366;2022-12-18T02:08:47;-3.50;99.90
17948;DHT22;9099;47.958;11.366;2022-12-18T02:11:18;-3.50;99.90
17948;DHT22;9099;47.958;11.366;2022-12-18T02:13:53;-3.50;99.90
17948;DHT22;9099;47.958;11.366;2022-12-18T02:16:32;-3.40;99.90
17948;DHT22;9099;47.958;11.366;2022-12-18T02:19:05;-3.40;99.90
17948;DHT22;9099;47.958;11.366;2022-12-18T02:21:40;-3.40;99.90
17948;DHT22;9099;47.958;11.366;2022-12-18T02:24:20;-3.40;99.90
17948;DHT22;9099;47.958;11.366;2022-12-18T02:26:50;-3.40;99.90
17948;DHT22;9099;47.958;11.366;2022-12-18T02:29:22;-3.50;99.90
17948;DHT22;9099;47.958;11.366;2022-12-18T02:31:58;-3.40;99.90
17948;DHT22;9099;47.958;11.366;2022-12-18T02:34:27;-3.50;99.90
17948;DHT22;9099;47.958;11.366;2022-12-18T02:36:55;-3.60;99.90
17948;DHT22;9099;47.958;11.366;2022-12-18T02:39:25;-3.60;99.90
17948;DHT22;9099;47.958;11.366;2022-12-18T02:41:54;-3.70;99.90
17948;DHT22;9099;47.958;11.366;2022-12-18T02:44:21;-3.70;99.90
17948;DHT22;9099;47.958;11.366;2022-12-18T02:46:50;-3.60;99.90
17948;DHT22;9099;47.958;11.366;2022-12-18T02:49:26;-3.60;99.90
17948;DHT22;9099;47.958;11.366;2022-12-18T02:52:04;-3.70;99.90
17948;DHT22;9099;47.958;11.366;2022-12-18T02:54:46;-3.60;99.90
17948;DHT22;9099;47.958;11.366;2022-12-18T02:57:21;-3.70;99.90
17948;DHT22;9099;47.958;11.366;2022-12-18T02:59:56;-3.70;99.90
17948;DHT22;9099;47.958;11.366;2022-12-18T03:02:28;-3.80;99.90
17948;DHT22;9099;47.958;11.366;2022-12-18T03:05:02;-3.90;99.90
17948;DHT22;9099;47.958;11.366;2022-12-18T03:07:37;-3.90;99.90
17948;DHT22;9099;47.958;11.366;2022-12-18T03:10:07;-4.00;99.90
17948;DHT22;9099;47.958;11.366;2022-12-18T03:12:37;-4.00;99.90
17948;DHT22;9099;47.958;11.366;2022-12-18T03:15:09;-4.00;99.90
17948;DHT22;9099;47.958;11.366;2022-12-18T03:17:39;-4.00;99.90
17948;DHT22;9099;47.958;11.366;2022-12-18T03:20:12;-4.00;99.90
17948;DHT22;9099;47.958;11.366;2022-12-18T03:22:42;-4.00;99.90
17948;DHT22;9099;47.958;11.366;2022-12-18T03:25:12;-4.00;99.90
17948;DHT22;9099;47.958;11.366;2022-12-18T03:27:44;-4.00;99.90
17948;DHT22;9099;47.958;11.366;2022-12-18T03:30:14;-4.00;99.90
17948;DHT22;9099;47.958;11.366;2022-12-18T03:32:44;-4.00;99.90
17948;DHT22;9099;47.958;11.366;2022-12-18T03:35:18;-4.00;99.90
17948;DHT22;9099;47.958;11.366;2022-12-18T03:37:46;-4.10;99.90
17948;DHT22;9099;47.958;11.366;2022-12-18T03:40:13;-4.00;99.90
17948;DHT22;9099;47.958;11.366;2022-12-18T03:42:46;-3.90;99.90
17948;DHT22;9099;47.958;11.366;2022-12-18T03:45:20;-3.90;99.90
17948;DHT22;9099;47.958;11.366;2022-12-18T03:47:57;-3.80;99.90
17948;DHT22;9099;47.958;11.366;2022-12-18T03:50:29;-3.80;99.90
17948;DHT22;9099;47.958;11.366;2022-12-18T03:53:08;-3.80;99.90
17948;DHT22;9099;47.958;11.366;2022-12-18T03:55:36;-4.00;99.90
17948;DHT22;9099;47.958;11.366;2022-12-18T03:58:06;-4.00;99.90
17948;DHT22;9099;47.958;11.366;2022-12-18T04:00:34;-4.10;99.90
17948;DHT22;9099;47.958;11.366;2022-12-18T04:03:02;-4.10;99.90
17948;DHT22;9099;47.958;11.366;2022-12-18T04:05:30;-4.10;99.90
17948;DHT22;9099;47.958;11.366;2022-12-18T04:07:58;-4.00;99.90
17948;DHT22;9099;47.958;11.366;2022-12-18T04:10:25;-4.00;99.90
17948;DHT22;9099;47.958;11.366;2022-12-18T04:12:55;-4.00;99.90
17948;DHT22;9099;47.958;11.366;2022-12-18T04:15:24;-4.10;99.90
17948;DHT22;9099;47.958;11.366;2022-12-18T04:17:50;-4.10;99.90
17948;DHT22;9099;47.958;11.366;2022-12-18T04:20:18;-4.00;99.90
17948;DHT22;9099;47.958;11.366;2022-12-18T04:22:44;-3.90;99.90
17948;DHT22;9099;47.958;11.366;2022-12-18T04:25:11;-3.90;99.90
17948;DHT22;9099;47.958;11.366;2022-12-18T04:27:38;-4.00;99.90
17948;DHT22;9099;47.958;11.366;2022-12-18T04:30:06;-4.00;99.90
17948;DHT22;9099;47.958;11.366;2022-12-18T04:32:35;-4.00;99.90
17948;DHT22;9099;47.958;11.366;2022-12-18T04:35:02;-4.00;99.90
17948;DHT22;9099;47.958;11.366;2022-12-18T04:37:29;-4.00;99.90
17948;DHT22;9099;47.958;11.366;2022-12-18T04:39:56;-4.00;99.90
17948;DHT22;9099;47.958;11.366;2022-12-18T04:42:23;-4.00;99.90
17948;DHT22;9099;47.958;11.366;2022-12-18T04:44:50;-4.00;99.90
17948;DHT22;9099;47.958;11.366;2022-12-18T04:47:17;-4.00;99.90
17948;DHT22;9099;47.958;11.366;2022-12-18T04:49:45;-4.10;99.90
17948;DHT22;9099;47.958;11.366;2022-12-18T04:52:12;-4.10;99.90
17948;DHT22;9099;47.958;11.366;2022-12-18T04:54:38;-4.00;99.90
17948;DHT22;9099;47.958;11.366;2022-12-18T04:57:05;-4.00;99.90
17948;DHT22;9099;47.958;11.366;2022-12-18T04:59:32;-3.90;99.90
17948;DHT22;9099;47.958;11.366;2022-12-18T05:01:59;-3.80;99.90
17948;DHT22;9099;47.958;11.366;2022-12-18T05:04:26;-3.80;99.90
17948;DHT22;9099;47.958;11.366;2022-12-18T05:06:54;-3.80;99.90
17948;DHT22;9099;47.958;11.366;2022-12-18T05:09:21;-3.80;99.90
17948;DHT22;9099;47.958;11.366;2022-12-18T05:11:47;-3.80;99.90
17948;DHT22;9099;47.958;11.366;2022-12-18T05:14:14;-3.90;99.90
17948;DHT22;9099;47.958;11.366;2022-12-18T05:16:41;-3.80;99.90
17948;DHT22;9099;47.958;11.366;2022-12-18T05:19:08;-3.80;99.90
17948;DHT22;9099;47.958;11.366;2022-12-18T05:21:35;-3.80;99.90
17948;DHT22;9099;47.958;11.366;2022-12-18T05:24:04;-3.90;99.90
17948;DHT22;9099;47.958;11.366;2022-12-18T05:26:31;-3.80;99.90
17948;DHT22;9099;47.958;11.366;2022-12-18T05:28:58;-3.80;99.90
17948;DHT22;9099;47.958;11.366;2022-12-18T05:31:24;-3.90;99.90
17948;DHT22;9099;47.958;11.366;2022-12-18T05:33:51;-4.00;99.90
17948;DHT22;9099;47.958;11.366;2022-12-18T05:36:18;-4.00;99.90
17948;DHT22;9099;47.958;11.366;2022-12-18T05:38:45;-3.90;99.90
17948;DHT22;9099;47.958;11.366;2022-12-18T05:41:13;-3.90;99.90
17948;DHT22;9099;47.958;11.366;2022-12-18T05:43:40;-3.80;99.90
17948;DHT22;9099;47.958;11.366;2022-12-18T05:46:09;-3.80;99.90
17948;DHT22;9099;47.958;11.366;2022-12-18T05:48:37;-3.80;99.90
17948;DHT22;9099;47.958;11.366;2022-12-18T05:51:06;-3.80;99.90
17948;DHT22;9099;47.958;11.366;2022-12-18T05:53:33;-3.90;99.90
17948;DHT22;9099;47.958;11.366;2022-12-18T05:56:01;-3.90;99.90
17948;DHT22;9099;47.958;11.366;2022-12-18T05:58:30;-4.00;99.90
17948;DHT22;9099;47.958;11.366;2022-12-18T06:00:57;-4.00;99.90
17948;DHT22;9099;47.958;11.366;2022-12-18T06:03:24;-3.90;99.90
17948;DHT22;9099;47.958;11.366;2022-12-18T06:05:51;-3.90;99.90
17948;DHT22;9099;47.958;11.366;2022-12-18T06:08:18;-3.90;99.90
17948;DHT22;9099;47.958;11.366;2022-12-18T06:10:50;-3.90;99.90
17948;DHT22;9099;47.958;11.366;2022-12-18T06:13:18;-3.90;99.90
17948;DHT22;9099;47.958;11.366;2022-12-18T06:15:47;-3.90;99.90
17948;DHT22;9099;47.958;11.366;2022-12-18T06:18:14;-3.90;99.90
17948;DHT22;9099;47.958;11.366;2022-12-18T06:20:40;-4.00;99.90
17948;DHT22;9099;47.958;11.366;2022-12-18T06:23:08;-4.10;99.90
17948;DHT22;9099;47.958;11.366;2022-12-18T06:25:37;-4.00;99.90
17948;DHT22;9099;47.958;11.366;2022-12-18T06:28:05;-4.10;99.90
17948;DHT22;9099;47.958;11.366;2022-12-18T06:30:32;-4.10;99.90
17948;DHT22;9099;47.958;11.366;2022-12-18T06:33:00;-4.10;99.90
17948;DHT22;9099;47.958;11.366;2022-12-18T06:35:27;-4.10;99.90
17948;DHT22;9099;47.958;11.366;2022-12-18T06:37:54;-4.20;99.90
17948;DHT22;9099;47.958;11.366;2022-12-18T06:40:20;-4.20;99.90
17948;DHT22;9099;47.958;11.366;2022-12-18T06:42:47;-4.10;99.90
17948;DHT22;9099;47.958;11.366;2022-12-18T06:45:14;-4.00;99.90
17948;DHT22;9099;47.958;11.366;2022-12-18T06:47:41;-4.00;99.90
17948;DHT22;9099;47.958;11.366;2022-12-18T06:50:09;-4.00;99.90
17948;DHT22;9099;47.958;11.366;2022-12-18T06:52:36;-4.00;99.90
17948;DHT22;9099;47.958;11.366;2022-12-18T06:55:05;-4.00;99.90
17948;DHT22;9099;47.958;11.366;2022-12-18T06:57:32;-4.00;99.90
17948;DHT22;9099;47.958;11.366;2022-12-18T06:59:59;-4.00;99.90
17948;DHT22;9099;47.958;11.366;2022-12-18T07:02:26;-4.10;99.90
17948;DHT22;9099;47.958;11.366;2022-12-18T07:04:53;-4.00;99.90
17948;DHT22;9099;47.958;11.366;2022-12-18T07:07:21;-4.00;99.90
17948;DHT22;9099;47.958;11.366;2022-12-18T07:09:49;-3.90;99.90
17948;DHT22;9099;47.958;11.366;2022-12-18T07:12:16;-3.80;99.90
17948;DHT22;9099;47.958;11.366;2022-12-18T07:14:43;-3.80;99.90
17948;DHT22;9099;47.958;11.366;2022-12-18T07:17:10;-3.70;99.90
17948;DHT22;9099;47.958;11.366;2022-12-18T07:19:37;-3.60;99.90
17948;DHT22;9099;47.958;11.366;2022-12-18T07:22:04;-3.60;99.90
17948;DHT22;9099;47.958;11.366;2022-12-18T07:24:33;-3.60;99.90
17948;DHT22;9099;47.958;11.366;2022-12-18T07:27:00;-3.60;99.90
17948;DHT22;9099;47.958;11.366;2022-12-18T07:29:27;-3.60;99.90
17948;DHT22;9099;47.958;11.366;2022-12-18T07:31:54;-3.60;99.90
17948;DHT22;9099;47.958;11.366;2022-12-18T07:34:21;-3.60;99.90
17948;DHT22;9099;47.958;11.366;2022-12-18T07:36:47;-3.60;99.90
17948;DHT22;9099;47.958;11.366;2022-12-18T07:39:14;-3.80;99.90
17948;DHT22;9099;47.958;11.366;2022-12-18T07:41:43;-3.80;99.90
17948;DHT22;9099;47.958;11.366;2022-12-18T07:44:29;-3.90;99.90
17948;DHT22;9099;47.958;11.366;2022-12-18T07:46:56;-4.00;99.90
17948;DHT22;9099;47.958;11.366;2022-12-18T07:49:23;-4.10;99.90
17948;DHT22;9099;47.958;11.366;2022-12-18T07:51:50;-4.10;99.90
17948;DHT22;9099;47.958;11.366;2022-12-18T07:54:17;-4.10;99.90
17948;DHT22;9099;47.958;11.366;2022-12-18T07:56:45;-4.00;99.90
17948;DHT22;9099;47.958;11.366;2022-12-18T07:59:12;-4.00;99.90
17948;DHT22;9099;47.958;11.366;2022-12-18T08:01:39;-4.00;99.90
17948;DHT22;9099;47.958;11.366;2022-12-18T08:04:05;-4.00;99.90
17948;DHT22;9099;47.958;11.366;2022-12-18T08:06:32;-4.00;99.90
17948;DHT22;9099;47.958;11.366;2022-12-18T08:08:59;-3.90;99.90
17948;DHT22;9099;47.958;11.366;2022-12-18T08:11:27;-3.70;99.90
17948;DHT22;9099;47.958;11.366;2022-12-18T08:13:56;-3.60;99.90
17948;DHT22;9099;47.958;11.366;2022-12-18T08:16:22;-3.50;99.90
17948;DHT22;9099;47.958;11.366;2022-12-18T08:18:51;-3.40;99.90
17948;DHT22;9099;47.958;11.366;2022-12-18T08:21:20;-3.40;99.90
17948;DHT22;9099;47.958;11.366;2022-12-18T08:23:48;-3.50;99.90
17948;DHT22;9099;47.958;11.366;2022-12-18T08:26:16;-3.40;99.90
17948;DHT22;9099;47.958;11.366;2022-12-18T08:28:43;-3.40;99.90
17948;DHT22;9099;47.958;11.366;2022-12-18T08:31:11;-3.40;99.90
17948;DHT22;9099;47.958;11.366;2022-12-18T08:33:38;-3.30;99.90
17948;DHT22;9099;47.958;11.366;2022-12-18T08:36:06;-3.20;99.90
17948;DHT22;9099;47.958;11.366;2022-12-18T08:38:33;-3.30;99.90
17948;DHT22;9099;47.958;11.366;2022-12-18T08:41:00;-3.20;99.90
17948;DHT22;9099;47.958;11.366;2022-12-18T08:43:28;-3.40;99.90
17948;DHT22;9099;47.958;11.366;2022-12-18T08:46:14;-3.40;99.90
17948;DHT22;9099;47.958;11.366;2022-12-18T08:48:41;-3.20;99.90
17948;DHT22;9099;47.958;11.366;2022-12-18T08:51:07;-3.10;99.90
17948;DHT22;9099;47.958;11.366;2022-12-18T08:53:35;-3.20;99.90
17948;DHT22;9099;47.958;11.366;2022-12-18T08:56:02;-3.30;99.90
17948;DHT22;9099;47.958;11.366;2022-12-18T08:58:30;-3.40;99.90
17948;DHT22;9099;47.958;11.366;2022-12-18T09:01:00;-3.40;99.90
17948;DHT22;9099;47.958;11.366;2022-12-18T09:03:28;-3.30;99.90
17948;DHT22;9099;47.958;11.366;2022-12-18T09:05:55;-3.20;99.90
17948;DHT22;9099;47.958;11.366;2022-12-18T09:08:22;-3.20;99.90
17948;DHT22;9099;47.958;11.366;2022-12-18T09:10:50;-3.10;99.90
17948;DHT22;9099;47.958;11.366;2022-12-18T09:13:17;-3.00;99.90
17948;DHT22;9099;47.958;11.366;2022-12-18T09:15:45;-3.00;99.90
17948;DHT22;9099;47.958;11.366;2022-12-18T09:18:13;-3.10;99.90
17948;DHT22;9099;47.958;11.366;2022-12-18T09:20:41;-3.00;99.90
17948;DHT22;9099;47.958;11.366;2022-12-18T09:23:08;-3.00;99.90
17948;DHT22;9099;47.958;11.366;2022-12-18T09:25:35;-2.70;99.90
17948;DHT22;9099;47.958;11.366;2022-12-18T09:28:04;-2.60;99.90
17948;DHT22;9099;47.958;11.366;2022-12-18T09:30:31;-2.50;99.90
17948;DHT22;9099;47.958;11.366;2022-12-18T09:32:59;-2.60;99.90
17948;DHT22;9099;47.958;11.366;2022-12-18T09:35:27;-2.50;99.90
17948;DHT22;9099;47.958;11.366;2022-12-18T09:37:55;-2.40;99.90
17948;DHT22;9099;47.958;11.366;2022-12-18T09:40:25;-2.20;99.90
17948;DHT22;9099;47.958;11.366;2022-12-18T09:42:57;-2.30;99.90
17948;DHT22;9099;47.958;11.366;2022-12-18T09:45:24;-2.40;99.90
17948;DHT22;9099;47.958;11.366;2022-12-18T09:47:52;-2.50;99.90
17948;DHT22;9099;47.958;11.366;2022-12-18T09:50:29;-2.30;99.90
17948;DHT22;9099;47.958;11.366;2022-12-18T09:52:59;-2.20;99.90
17948;DHT22;9099;47.958;11.366;2022-12-18T09:55:33;-2.00;99.90
17948;DHT22;9099;47.958;11.366;2022-12-18T09:58:04;-2.00;99.90
17948;DHT22;9099;47.958;11.366;2022-12-18T10:00:33;-2.10;99.90
17948;DHT22;9099;47.958;11.366;2022-12-18T10:03:02;-2.10;99.90
17948;DHT22;9099;47.958;11.366;2022-12-18T10:05:35;-2.20;99.90
17948;DHT22;9099;47.958;11.366;2022-12-18T10:08:11;-2.30;99.90
17948;DHT22;9099;47.958;11.366;2022-12-18T10:10:43;-2.30;99.90
17948;DHT22;9099;47.958;11.366;2022-12-18T10:13:21;-2.20;99.90
17948;DHT22;9099;47.958;11.366;2022-12-18T10:15:59;-2.20;99.90
17948;DHT22;9099;47.958;11.366;2022-12-18T10:18:38;-2.10;99.90
17948;DHT22;9099;47.958;11.366;2022-12-18T10:21:11;-1.90;99.90
17948;DHT22;9099;47.958;11.366;2022-12-18T10:23:46;-1.90;99.90
17948;DHT22;9099;47.958;11.366;2022-12-18T10:26:17;-2.00;99.90
17948;DHT22;9099;47.958;11.366;2022-12-18T10:28:45;-2.10;99.90
17948;DHT22;9099;47.958;11.366;2022-12-18T10:31:16;-1.80;99.90
17948;DHT22;9099;47.958;11.366;2022-12-18T10:33:44;-1.70;99.90
17948;DHT22;9099;47.958;11.366;2022-12-18T10:36:11;-1.70;99.90
17948;DHT22;9099;47.958;11.366;2022-12-18T10:38:38;-1.80;99.90
17948;DHT22;9099;47.958;11.366;2022-12-18T10:41:23;-1.80;99.90
17948;DHT22;9099;47.958;11.366;2022-12-18T10:44:11;-1.90;99.90
17948;DHT22;9099;47.958;11.366;2022-12-18T10:46:38;-1.70;99.90
17948;DHT22;9099;47.958;11.366;2022-12-18T10:49:17;-1.70;99.90
17948;DHT22;9099;47.958;11.366;2022-12-18T10:51:45;-1.50;99.90
17948;DHT22;9099;47.958;11.366;2022-12-18T10:54:15;-1.50;99.90
17948;DHT22;9099;47.958;11.366;2022-12-18T10:56:44;-1.20;99.90
17948;DHT22;9099;47.958;11.366;2022-12-18T10:59:12;-0.90;99.90
17948;DHT22;9099;47.958;11.366;2022-12-18T11:01:48;-0.80;99.90
17948;DHT22;9099;47.958;11.366;2022-12-18T11:04:19;-0.50;99.90
17948;DHT22;9099;47.958;11.366;2022-12-18T11:06:57;-0.40;99.90
17948;DHT22;9099;47.958;11.366;2022-12-18T11:09:26;-0.60;99.90
17948;DHT22;9099;47.958;11.366;2022-12-18T11:11:57;-0.50;99.90
17948;DHT22;9099;47.958;11.366;2022-12-18T11:14:26;-0.30;99.90
17948;DHT22;9099;47.958;11.366;2022-12-18T11:16:54;-0.20;99.90
17948;DHT22;9099;47.958;11.366;2022-12-18T11:19:30;0.00;99.90
17948;DHT22;9099;47.958;11.366;2022-12-18T11:21:58;-0.20;99.90
17948;DHT22;9099;47.958;11.366;2022-12-18T11:24:29;-0.30;99.90
17948;DHT22;9099;47.958;11.366;2022-12-18T11:27:00;-0.10;99.90
17948;DHT22;9099;47.958;11.366;2022-12-18T11:29:32;-0.20;99.90
17948;DHT22;9099;47.958;11.366;2022-12-18T11:35:13;-0.60;99.90
17948;DHT22;9099;47.958;11.366;2022-12-18T11:37:45;-0.60;99.90
17948;DHT22;9099;47.958;11.366;2022-12-18T11:40:16;-0.50;99.90
17948;DHT22;9099;47.958;11.366;2022-12-18T11:42:51;-0.40;99.90
17948;DHT22;9099;47.958;11.366;2022-12-18T11:45:30;-0.30;99.90
17948;DHT22;9099;47.958;11.366;2022-12-18T11:48:03;0.10;99.90
17948;DHT22;9099;47.958;11.366;2022-12-18T11:50:37;0.70;99.90
17948;DHT22;9099;47.958;11.366;2022-12-18T11:53:11;1.00;99.90
17948;DHT22;9099;47.958;11.366;2022-12-18T11:55:43;1.20;99.90
17948;DHT22;9099;47.958;11.366;2022-12-18T11:58:24;1.30;99.90
17948;DHT22;9099;47.958;11.366;2022-12-18T12:01:01;1.50;99.90
17948;DHT22;9099;47.958;11.366;2022-12-18T12:03:46;1.50;99.90
17948;DHT22;9099;47.958;11.366;2022-12-18T12:06:20;1.80;99.90
17948;DHT22;9099;47.958;11.366;2022-12-18T12:08:58;1.90;99.90
17948;DHT22;9099;47.958;11.366;2022-12-18T12:11:34;2.20;99.90
17948;DHT22;9099;47.958;11.366;2022-12-18T12:14:22;2.10;99.90
17948;DHT22;9099;47.958;11.366;2022-12-18T12:16:57;2.10;99.90
17948;DHT22;9099;47.958;11.366;2022-12-18T12:19:36;2.30;99.90
17948;DHT22;9099;47.958;11.366;2022-12-18T12:22:10;2.50;99.90
17948;DHT22;9099;47.958;11.366;2022-12-18T12:24:50;2.80;99.90
17948;DHT22;9099;47.958;11.366;2022-12-18T12:27:25;2.80;99.90
17948;DHT22;9099;47.958;11.366;2022-12-18T12:30:03;2.10;99.90
17948;DHT22;9099;47.958;11.366;2022-12-18T12:32:43;2.00;99.90
17948;DHT22;9099;47.958;11.366;2022-12-18T12:35:21;2.20;99.90
17948;DHT22;9099;47.958;11.366;2022-12-18T12:37:59;2.40;99.90
17948;DHT22;9099;47.958;11.366;2022-12-18T12:40:31;2.20;99.90
17948;DHT22;9099;47.958;11.366;2022-12-18T12:43:03;2.00;99.90
17948;DHT22;9099;47.958;11.366;2022-12-18T12:45:43;2.00;99.90
17948;DHT22;9099;47.958;11.366;2022-12-18T12:48:19;1.80;99.90
17948;DHT22;9099;47.958;11.366;2022-12-18T12:50:48;1.90;99.90
17948;DHT22;9099;47.958;11.366;2022-12-18T12:53:23;1.90;99.90
17948;DHT22;9099;47.958;11.366;2022-12-18T12:55:52;2.00;99.90
17948;DHT22;9099;47.958;11.366;2022-12-18T12:58:26;1.80;99.90
17948;DHT22;9099;47.958;11.366;2022-12-18T13:01:04;1.70;99.90
17948;DHT22;9099;47.958;11.366;2022-12-18T13:03:41;1.40;99.90
17948;DHT22;9099;47.958;11.366;2022-12-18T13:06:14;1.00;99.90
17948;DHT22;9099;47.958;11.366;2022-12-18T13:08:55;1.10;99.90
17948;DHT22;9099;47.958;11.366;2022-12-18T13:11:37;1.20;99.90
17948;DHT22;9099;47.958;11.366;2022-12-18T13:14:25;1.00;99.90
17948;DHT22;9099;47.958;11.366;2022-12-18T13:17:24;0.60;99.90
17948;DHT22;9099;47.958;11.366;2022-12-18T13:20:06;0.50;99.90
17948;DHT22;9099;47.958;11.366;2022-12-18T13:22:35;0.40;99.90
17948;DHT22;9099;47.958;11.366;2022-12-18T13:25:32;0.30;99.90
17948;DHT22;9099;47.958;11.366;2022-12-18T13:28:05;-0.10;99.90
17948;DHT22;9099;47.958;11.366;2022-12-18T13:30:57;-0.10;99.90
17948;DHT22;9099;47.958;11.366;2022-12-18T13:33:45;0.10;99.90
17948;DHT22;9099;47.958;11.366;2022-12-18T13:36:26;-0.20;99.90
17948;DHT22;9099;47.958;11.366;2022-12-18T13:39:21;-0.20;99.90
17948;DHT22;9099;47.958;11.366;2022-12-18T13:41:53;-0.20;99.90
17948;DHT22;9099;47.958;11.366;2022-12-18T13:44:28;0.00;99.90
17948;DHT22;9099;47.958;11.366;2022-12-18T13:46:57;-0.10;99.90
17948;DHT22;9099;47.958;11.366;2022-12-18T13:49:37;-0.20;99.90
17948;DHT22;9099;47.958;11.366;2022-12-18T13:52:16;-0.50;99.90
17948;DHT22;9099;47.958;11.366;2022-12-18T13:54:48;-0.60;99.90
17948;DHT22;9099;47.958;11.366;2022-12-18T13:57:29;-0.90;99.90
17948;DHT22;9099;47.958;11.366;2022-12-18T13:59:56;-1.30;99.90
17948;DHT22;9099;47.958;11.366;2022-12-18T14:02:24;-1.40;99.90
17948;DHT22;9099;47.958;11.366;2022-12-18T14:04:52;-1.30;99.90
17948;DHT22;9099;47.958;11.366;2022-12-18T14:07:21;-1.30;99.90
17948;DHT22;9099;47.958;11.366;2022-12-18T14:09:51;-1.40;99.90
17948;DHT22;9099;47.958;11.366;2022-12-18T14:12:20;-1.60;99.90
17948;DHT22;9099;47.958;11.366;2022-12-18T14:15:17;-1.70;99.90
17948;DHT22;9099;47.958;11.366;2022-12-18T14:17:47;-1.80;99.90
17948;DHT22;9099;47.958;11.366;2022-12-18T14:20:15;-1.80;99.90
17948;DHT22;9099;47.958;11.366;2022-12-18T14:22:45;-1.90;99.90
17948;DHT22;9099;47.958;11.366;2022-12-18T14:25:17;-2.10;99.90
17948;DHT22;9099;47.958;11.366;2022-12-18T14:27:46;-2.10;99.90
17948;DHT22;9099;47.958;11.366;2022-12-18T14:30:31;-2.20;99.90
17948;DHT22;9099;47.958;11.366;2022-12-18T14:33:04;-2.20;99.90
17948;DHT22;9099;47.958;11.366;2022-12-18T14:35:32;-2.20;99.90
17948;DHT22;9099;47.958;11.366;2022-12-18T14:38:27;-2.20;99.90
17948;DHT22;9099;47.958;11.366;2022-12-18T14:40:56;-2.30;99.90
17948;DHT22;9099;47.958;11.366;2022-12-18T14:43:23;-2.30;99.90
17948;DHT22;9099;47.958;11.366;2022-12-18T14:45:51;-2.30;99.90
17948;DHT22;9099;47.958;11.366;2022-12-18T14:48:20;-2.40;99.90
17948;DHT22;9099;47.958;11.366;2022-12-18T14:50:55;-2.50;99.90
17948;DHT22;9099;47.958;11.366;2022-12-18T14:53:26;-2.60;99.90
17948;DHT22;9099;47.958;11.366;2022-12-18T14:55:55;-2.60;99.90
17948;DHT22;9099;47.958;11.366;2022-12-18T14:58:22;-2.60;99.90
17948;DHT22;9099;47.958;11.366;2022-12-18T15:00:50;-2.60;99.90
17948;DHT22;9099;47.958;11.366;2022-12-18T15:03:18;-2.60;99.90
17948;DHT22;9099;47.958;11.366;2022-12-18T15:05:46;-2.70;99.90
17948;DHT22;9099;47.958;11.366;2022-12-18T15:08:34;-2.70;99.90
17948;DHT22;9099;47.958;11.366;2022-12-18T15:11:02;-2.70;99.90
17948;DHT22;9099;47.958;11.366;2022-12-18T15:13:29;-2.80;99.90
17948;DHT22;9099;47.958;11.366;2022-12-18T15:16:00;-2.70;99.90
17948;DHT22;9099;47.958;11.366;2022-12-18T15:18:32;-2.70;99.90
17948;DHT22;9099;47.958;11.366;2022-12-18T15:21:07;-2.50;99.90
17948;DHT22;9099;47.958;11.366;2022-12-18T15:23:36;-2.50;99.90
17948;DHT22;9099;47.958;11.366;2022-12-18T15:26:04;-2.60;99.90
17948;DHT22;9099;47.958;11.366;2022-12-18T15:28:35;-2.60;99.90
17948;DHT22;9099;47.958;11.366;2022-12-18T15:31:22;-2.70;99.90
17948;DHT22;9099;47.958;11.366;2022-12-18T15:34:12;-2.80;99.90
17948;DHT22;9099;47.958;11.366;2022-12-18T15:36:39;-2.60;99.90
17948;DHT22;9099;47.958;11.366;2022-12-18T15:39:06;-2.50;99.90
17948;DHT22;9099;47.958;11.366;2022-12-18T15:41:34;-2.40;99.90
17948;DHT22;9099;47.958;11.366;2022-12-18T15:44:02;-2.50;99.90
17948;DHT22;9099;47.958;11.366;2022-12-18T15:46:29;-2.70;99.90
17948;DHT22;9099;47.958;11.366;2022-12-18T15:48:57;-2.80;99.90
17948;DHT22;9099;47.958;11.366;2022-12-18T15:51:27;-2.90;99.90
17948;DHT22;9099;47.958;11.366;2022-12-18T15:53:56;-3.00;99.90
17948;DHT22;9099;47.958;11.366;2022-12-18T15:56:23;-3.00;99.90
17948;DHT22;9099;47.958;11.366;2022-12-18T15:59:10;-3.00;99.90